Nekoma, Kansas
Current Conditions -  °F | °C
As of 8:15 AM on Thursday 18 Dec 2014 (Local Time) from KHYS Reporting Station
Overcast Overcast  
Wind Chill: 21°   Ceiling: 500
Heat Index: 27°   Visibility: 5mi
Dew Point: 18°   Wind: 5mph
Humidity: 69%   Direction: 20°NNE
Pressure: 30.17"   Gusts: NA
Location:  38.47°N, 99.44°W
Report Text: KHYS 181415Z AUTO 02004KT 5SM OVC005 M03/M08 A3017 RMK AO1
Loading
Personal Weather Stations






























Interactive Weather Map New forecast layout! Learn more

10-Day Weather Forecast

Advertisements
Track Severe Weather on mobile